Time;durP1;ratioP1;P1;durP2;ratioP2;P2;SDS_P1;SDS_P2;PMS_P1;PMS_P2;Temp;Humidity;BMP_temperature;BMP_pressure;BME280_temperature;BME280_humidity;BME280_pressure;Samples;Min_cycle;Max_cycle;Signal;HPM_P1;HPM_P2
2024/02/08 00:01:27;;;;;;;6.40;4.10;;;;;;;22.56;31.07;100088.01;104242;1291;61376;-82
2024/02/08 00:03:53;;;;;;;5.70;4.00;;;;;;;22.56;31.04;100084.72;104418;1291;59416;-82
2024/02/08 00:06:19;;;;;;;6.40;3.90;;;;;;;22.56;31.02;100083.81;104297;1296;61359;-82
2024/02/08 00:08:44;;;;;;;7.00;3.90;;;;;;;22.57;31.06;100082.88;104399;1291;61429;-81
2024/02/08 00:11:10;;;;;;;6.60;4.00;;;;;;;22.57;30.84;100080.89;104241;1296;61495;-80
2024/02/08 00:13:35;;;;;;;6.30;3.70;;;;;;;22.58;31.05;100081.55;104258;1291;61297;-81
2024/02/08 00:16:01;;;;;;;7.80;3.90;;;;;;;22.58;31.10;100075.98;104310;1291;61371;-82
2024/02/08 00:18:27;;;;;;;6.10;3.90;;;;;;;22.58;30.98;100074.70;104244;1291;62065;-82
2024/02/08 00:20:53;;;;;;;6.30;3.90;;;;;;;22.58;31.06;100078.98;104281;1291;59249;-82
2024/02/08 00:23:19;;;;;;;6.20;3.80;;;;;;;22.58;30.91;100074.85;104295;1290;63506;-82
2024/02/08 00:25:50;;;;;;;9.00;4.20;;;;;;;22.59;30.97;100075.86;104152;1297;61497;-82
2024/02/08 00:28:16;;;;;;;6.10;4.00;;;;;;;22.59;31.02;100075.17;104520;1291;61235;-82
2024/02/08 00:30:42;;;;;;;6.50;3.70;;;;;;;22.60;30.93;100074.73;104641;1291;72596;-82
2024/02/08 00:33:08;;;;;;;6.90;4.10;;;;;;;22.60;30.88;100076.52;104483;1295;61298;-82
2024/02/08 00:35:34;;;;;;;6.70;3.80;;;;;;;22.61;30.96;100077.71;104510;1291;61373;-81
2024/02/08 00:38:00;;;;;;;7.90;3.60;;;;;;;22.61;31.00;100078.41;104507;1291;61872;-82
2024/02/08 00:40:25;;;;;;;5.60;3.70;;;;;;;22.62;30.94;100075.13;104520;1292;61424;-82
2024/02/08 00:42:52;;;;;;;6.40;3.70;;;;;;;22.62;30.86;100073.48;104387;1291;61397;-82
2024/02/08 00:45:22;;;;;;;5.90;3.60;;;;;;;22.62;30.95;100074.90;104517;1291;74489;-82
2024/02/08 00:47:54;;;;;;;5.80;3.80;;;;;;;22.62;30.82;100072.58;104592;1291;61260;-82
2024/02/08 00:50:21;;;;;;;5.60;3.70;;;;;;;22.62;30.91;100071.31;104562;1291;61157;-81
2024/02/08 00:52:47;;;;;;;5.80;3.50;;;;;;;22.63;30.91;100073.41;104527;1291;72310;-81
2024/02/08 00:55:16;;;;;;;7.70;3.80;;;;;;;22.63;30.87;100072.31;104622;1292;61162;-82
2024/02/08 00:57:42;;;;;;;6.10;3.90;;;;;;;22.64;30.77;100069.59;104477;1291;61275;-82
2024/02/08 01:00:08;;;;;;;7.00;4.00;;;;;;;22.64;30.79;100063.48;104523;1290;61408;-82
2024/02/08 01:02:34;;;;;;;6.10;3.90;;;;;;;22.65;30.89;100063.39;104424;1291;61389;-83
2024/02/08 01:05:00;;;;;;;7.60;4.50;;;;;;;22.65;30.89;100059.27;104686;1291;61350;-81
2024/02/08 01:07:26;;;;;;;5.80;4.00;;;;;;;22.66;30.87;100062.60;104645;1291;61464;-82
2024/02/08 01:09:52;;;;;;;7.50;4.00;;;;;;;22.66;30.87;100062.77;104527;1291;61316;-83
2024/02/08 01:12:19;;;;;;;7.10;4.30;;;;;;;22.66;30.84;100058.98;104574;1291;61300;-82
2024/02/08 01:14:47;;;;;;;6.70;4.00;;;;;;;22.66;30.79;100056.05;104539;1291;61295;-82
2024/02/08 01:17:14;;;;;;;6.10;3.90;;;;;;;22.67;30.80;100060.88;104619;1291;61267;-82
2024/02/08 01:19:40;;;;;;;6.20;4.20;;;;;;;22.67;30.74;100065.16;104356;1291;61410;-82
2024/02/08 01:22:06;;;;;;;7.20;3.70;;;;;;;22.67;30.76;100068.52;104471;1291;61338;-83
2024/02/08 01:24:32;;;;;;;6.10;3.90;;;;;;;22.67;30.88;100067.07;104559;1294;61364;-82
2024/02/08 01:26:57;;;;;;;6.30;3.90;;;;;;;22.68;30.84;100071.38;104517;1291;61313;-82
2024/02/08 01:29:26;;;;;;;7.30;3.90;;;;;;;22.68;30.78;100074.90;104388;1294;71935;-82
2024/02/08 01:31:52;;;;;;;7.70;3.30;;;;;;;22.69;30.84;100071.81;104685;1295;61274;-82
2024/02/08 01:34:18;;;;;;;5.30;3.80;;;;;;;22.68;30.90;100070.23;104682;1290;61325;-83
2024/02/08 01:36:44;;;;;;;6.60;3.90;;;;;;;22.69;30.84;100074.31;104481;1291;61392;-83
2024/02/08 01:39:13;;;;;;;5.80;3.70;;;;;;;22.69;30.81;100076.60;104480;1291;61289;-83
2024/02/08 01:41:42;;;;;;;5.80;3.90;;;;;;;22.70;30.97;100079.42;104501;1295;61507;-82
2024/02/08 01:44:09;;;;;;;6.70;3.90;;;;;;;22.70;30.81;100076.56;104549;1291;74356;-81
2024/02/08 01:46:38;;;;;;;6.50;4.00;;;;;;;22.70;30.86;100075.64;104596;1291;61441;-82
2024/02/08 01:49:21;;;;;;;6.40;3.80;;;;;;;22.71;30.73;100074.88;104283;1291;61519;-82
2024/02/08 01:51:47;;;;;;;5.70;3.90;;;;;;;22.70;30.77;100076.69;104348;1291;73464;-82
2024/02/08 01:54:12;;;;;;;5.90;3.70;;;;;;;22.70;30.86;100076.31;104370;1291;61398;-80
2024/02/08 01:56:44;;;;;;;6.50;4.30;;;;;;;22.70;30.81;100074.14;104190;1292;61387;-81
2024/02/08 01:59:11;;;;;;;6.90;4.20;;;;;;;22.71;30.79;100075.20;104402;1292;61415;-82
2024/02/08 02:01:38;;;;;;;5.80;3.60;;;;;;;22.71;30.78;100078.98;104241;1294;72328;-81
2024/02/08 02:04:07;;;;;;;7.80;4.40;;;;;;;22.72;30.71;100083.88;104270;1291;74306;-81
2024/02/08 02:06:35;;;;;;;8.40;4.20;;;;;;;22.72;30.70;100082.64;104421;1292;61173;-81
2024/02/08 02:09:02;;;;;;;4.70;3.50;;;;;;;22.72;30.74;100087.13;104344;1290;61287;-81
2024/02/08 02:11:37;;;;;;;6.30;4.20;;;;;;;22.72;30.66;100081.91;104312;1291;72589;-80
2024/02/08 02:14:04;;;;;;;6.60;4.00;;;;;;;22.73;30.80;100078.99;104426;1295;74432;-82
2024/02/08 02:16:30;;;;;;;6.00;3.80;;;;;;;22.72;30.74;100080.09;104332;1291;61389;-82
2024/02/08 02:18:56;;;;;;;6.40;4.10;;;;;;;22.73;30.70;100080.06;104358;1292;61320;-82
2024/02/08 02:21:22;;;;;;;6.80;4.10;;;;;;;22.73;30.72;100082.90;104288;1296;61481;-82
2024/02/08 02:23:48;;;;;;;6.90;3.70;;;;;;;22.73;30.78;100085.73;104319;1291;61276;-81
2024/02/08 02:26:14;;;;;;;6.30;3.70;;;;;;;22.73;30.76;100085.36;104279;1291;59475;-81
2024/02/08 02:28:40;;;;;;;5.50;3.80;;;;;;;22.73;30.77;100085.54;104350;1291;61341;-83
2024/02/08 02:31:06;;;;;;;5.90;3.70;;;;;;;22.74;30.75;100084.21;104346;1291;61385;-83
2024/02/08 02:33:35;;;;;;;6.80;4.10;;;;;;;22.74;30.81;100080.97;104473;1291;61378;-82
2024/02/08 02:36:02;;;;;;;6.50;3.70;;;;;;;22.75;30.74;100076.64;104643;1291;61266;-81
2024/02/08 02:38:28;;;;;;;7.10;3.60;;;;;;;22.75;30.77;100075.00;104359;1291;61453;-80
2024/02/08 02:40:54;;;;;;;5.90;4.00;;;;;;;22.76;30.72;100075.28;104324;1291;61393;-81
2024/02/08 02:43:23;;;;;;;6.40;3.80;;;;;;;22.76;30.66;100075.11;104491;1295;61388;-81
2024/02/08 02:45:49;;;;;;;5.90;3.90;;;;;;;22.76;30.66;100075.44;104265;1291;61392;-81
2024/02/08 02:48:15;;;;;;;6.20;4.10;;;;;;;22.76;30.75;100074.55;104326;1291;61320;-81
2024/02/08 02:50:41;;;;;;;6.70;3.70;;;;;;;22.77;30.67;100078.09;104322;1291;61310;-81
2024/02/08 02:53:10;;;;;;;5.60;3.60;;;;;;;22.77;30.67;100069.29;104311;1295;61390;-81
2024/02/08 02:55:37;;;;;;;5.60;3.50;;;;;;;22.77;30.70;100069.42;104217;1291;60399;-82
2024/02/08 02:58:03;;;;;;;6.20;4.40;;;;;;;22.77;30.71;100072.68;104366;1291;61250;-82
2024/02/08 03:00:36;;;;;;;6.20;3.90;;;;;;;22.77;30.77;100072.48;104407;1292;72508;-82
2024/02/08 03:03:12;;;;;;;6.40;4.00;;;;;;;22.78;30.66;100076.55;103966;1291;72201;-82
2024/02/08 03:05:46;;;;;;;8.10;4.00;;;;;;;22.78;30.68;100076.91;104349;1291;61178;-81
2024/02/08 03:08:11;;;;;;;6.20;3.70;;;;;;;22.78;30.63;100080.85;104268;1291;61153;-81
2024/02/08 03:10:42;;;;;;;6.30;4.00;;;;;;;22.78;30.62;100085.15;104219;1297;61291;-81
2024/02/08 03:13:10;;;;;;;4.80;3.80;;;;;;;22.79;30.72;100084.21;104158;1297;73389;-81
2024/02/08 03:15:38;;;;;;;6.50;3.80;;;;;;;22.78;30.66;100085.66;104356;1291;61343;-81
2024/02/08 03:18:07;;;;;;;6.00;3.80;;;;;;;22.79;30.79;100089.39;104353;1291;61394;-81
2024/02/08 03:20:35;;;;;;;5.70;4.00;;;;;;;22.79;30.64;100090.98;104449;1291;72559;-81
2024/02/08 03:23:02;;;;;;;5.60;3.80;;;;;;;22.79;30.70;100088.45;104215;1291;74582;-81
2024/02/08 03:25:30;;;;;;;7.20;4.60;;;;;;;22.79;30.66;100093.14;104340;1292;61296;-81
2024/02/08 03:27:56;;;;;;;5.60;3.80;;;;;;;22.80;30.73;100089.52;104160;1291;60123;-81
2024/02/08 03:30:31;;;;;;;7.50;4.00;;;;;;;22.80;30.76;100087.52;104278;1291;61319;-82
2024/02/08 03:33:12;;;;;;;6.70;3.80;;;;;;;22.80;30.71;100090.75;104247;1294;74198;-81
2024/02/08 03:35:38;;;;;;;5.60;4.10;;;;;;;22.80;30.64;100087.70;104393;1291;61272;-82
2024/02/08 03:38:11;;;;;;;7.60;4.00;;;;;;;22.80;30.61;100088.68;104163;1294;61404;-82
2024/02/08 03:40:37;;;;;;;7.80;4.20;;;;;;;22.81;30.69;100089.04;104271;1292;61360;-82
2024/02/08 03:43:04;;;;;;;6.40;4.40;;;;;;;22.81;30.62;100097.27;104312;1296;61510;-82
2024/02/08 03:45:31;;;;;;;5.90;3.90;;;;;;;22.81;30.67;100093.31;104301;1291;61433;-82
2024/02/08 03:47:58;;;;;;;7.40;4.20;;;;;;;22.82;30.70;100092.74;104321;1291;61450;-81
2024/02/08 03:50:25;;;;;;;8.40;4.30;;;;;;;22.82;30.75;100094.34;104195;1297;71934;-82
2024/02/08 03:52:51;;;;;;;6.90;4.00;;;;;;;22.82;30.60;100095.55;104344;1292;74404;-81
2024/02/08 03:55:26;;;;;;;6.70;4.30;;;;;;;22.82;30.56;100093.73;104371;1291;61269;-81
2024/02/08 03:58:00;;;;;;;6.10;4.30;;;;;;;22.82;30.49;100099.29;104261;1295;61891;-82
2024/02/08 04:00:29;;;;;;;6.30;4.20;;;;;;;22.83;30.66;100104.27;104338;1296;72552;-82
2024/02/08 04:03:01;;;;;;;7.70;4.50;;;;;;;22.83;30.52;100105.70;104431;1291;74418;-82
2024/02/08 04:05:37;;;;;;;5.40;3.90;;;;;;;22.83;30.62;100107.11;104212;1291;61397;-82
2024/02/08 04:54:44;;;;;;;8.80;4.80;;;;;;;22.84;30.35;100127.65;104346;1296;72499;-82
2024/02/08 04:57:09;;;;;;;8.60;5.10;;;;;;;22.83;30.35;100127.92;104169;1295;61392;-81
2024/02/08 04:59:37;;;;;;;9.00;5.70;;;;;;;22.82;30.36;100132.52;104157;1296;61257;-82
2024/02/08 05:02:06;;;;;;;9.00;5.40;;;;;;;22.81;30.13;100134.23;104153;1293;61426;-82
2024/02/08 05:04:36;;;;;;;9.00;5.50;;;;;;;22.79;30.11;100136.53;104148;1295;72292;-82
2024/02/08 05:07:04;;;;;;;9.60;5.80;;;;;;;22.78;30.06;100137.14;104140;1291;61417;-81
2024/02/08 05:09:30;;;;;;;8.80;6.30;;;;;;;22.76;29.80;100140.55;104316;1291;61294;-81
2024/02/08 05:12:00;;;;;;;9.60;6.10;;;;;;;22.74;29.76;100139.63;104477;1296;61422;-81
2024/02/08 05:14:26;;;;;;;10.70;6.60;;;;;;;22.73;29.65;100134.41;104256;1293;72422;-81
2024/02/08 05:16:54;;;;;;;9.90;6.00;;;;;;;22.71;29.63;100132.70;104196;1296;61311;-80
2024/02/08 05:19:23;;;;;;;9.20;5.90;;;;;;;22.71;29.59;100132.94;104691;1291;61475;-84
2024/02/08 05:21:50;;;;;;;9.60;5.70;;;;;;;22.70;29.53;100130.73;104697;1291;61256;-84
2024/02/08 05:24:16;;;;;;;11.30;6.00;;;;;;;22.68;29.45;100130.01;104537;1293;72773;-84
2024/02/08 05:26:43;;;;;;;10.30;6.30;;;;;;;22.66;29.50;100133.02;104581;1293;61354;-84
2024/02/08 05:29:09;;;;;;;8.90;5.90;;;;;;;22.64;29.48;100129.63;104638;1291;61369;-82
2024/02/08 05:31:41;;;;;;;10.70;6.10;;;;;;;22.63;29.44;100129.39;103836;1291;63091;-82
2024/02/08 05:34:10;;;;;;;11.20;6.70;;;;;;;22.60;29.41;100131.36;104828;1292;72331;-82
2024/02/08 05:36:39;;;;;;;13.80;8.00;;;;;;;22.57;29.30;100137.73;104790;1291;74637;-82
2024/02/08 05:39:12;;;;;;;15.20;8.00;;;;;;;22.52;29.30;100136.91;104846;1291;60144;-82
2024/02/08 05:41:44;;;;;;;16.30;8.90;;;;;;;22.47;29.21;100137.02;104489;1296;61468;-81
2024/02/08 05:44:12;;;;;;;17.60;9.70;;;;;;;22.43;29.14;100138.63;104090;1298;71399;-81
2024/02/08 05:46:39;;;;;;;15.50;8.10;;;;;;;22.41;29.08;100144.17;104780;1295;74474;-83
2024/02/08 05:49:11;;;;;;;11.80;6.90;;;;;;;22.40;29.32;100144.07;104504;1293;59314;-83
2024/02/08 05:51:46;;;;;;;15.00;7.40;;;;;;;22.40;29.70;100139.23;104272;1297;61318;-81
2024/02/08 05:54:20;;;;;;;15.60;7.10;;;;;;;22.40;29.90;100141.92;104595;1297;72291;-80
2024/02/08 05:56:46;;;;;;;18.70;8.10;;;;;;;22.40;30.04;100140.82;104655;1292;74527;-81
2024/02/08 05:59:18;;;;;;;18.10;8.20;;;;;;;22.38;29.93;100139.59;104736;1296;61191;-80
2024/02/08 06:01:46;;;;;;;20.30;8.10;;;;;;;22.36;30.00;100136.75;104769;1294;61378;-82
2024/02/08 06:04:24;;;;;;;15.60;8.20;;;;;;;22.35;30.13;100136.46;104276;1291;72499;-81
2024/02/08 06:06:58;;;;;;;21.20;9.00;;;;;;;22.31;30.01;100136.97;104323;1294;74348;-83
2024/02/08 06:09:47;;;;;;;16.00;8.60;;;;;;;22.28;29.95;100135.80;104576;1291;61383;-79
2024/02/08 06:12:42;;;;;;;16.50;8.20;;;;;;;22.26;29.78;100135.91;104775;1292;61697;-80
2024/02/08 06:15:21;;;;;;;17.30;8.20;;;;;;;22.27;29.74;100134.92;104810;1293;72364;-80
2024/02/08 06:18:06;;;;;;;12.80;6.90;;;;;;;22.31;29.68;100135.88;104163;1295;74702;-79
2024/02/08 06:20:43;;;;;;;17.00;7.50;;;;;;;22.34;29.79;100136.70;103904;1293;61116;-80
2024/02/08 06:23:16;;;;;;;18.70;7.70;;;;;;;22.36;29.64;100137.27;103939;1293;61345;-82
2024/02/08 06:28:46;;;;;;;13.60;7.00;;;;;;;22.41;29.64;100140.04;103977;1291;73486;-81
2024/02/08 06:31:17;;;;;;;12.60;7.40;;;;;;;22.44;29.73;100144.66;105996;1292;60027;-82
2024/02/08 06:34:09;;;;;;;16.30;7.10;;;;;;;22.46;29.82;100147.37;106079;1295;61076;-78
2024/02/08 06:36:33;;;;;;;14.20;6.80;;;;;;;22.47;29.73;100144.94;106144;1292;72614;-78
2024/02/08 06:39:20;;;;;;;13.40;6.60;;;;;;;22.47;29.74;100150.45;106125;1292;74480;-79
2024/02/08 06:41:52;;;;;;;11.90;6.90;;;;;;;22.47;29.82;100152.48;106172;1291;59900;-79
2024/02/08 06:47:54;;;;;;;14.60;6.70;;;;;;;22.45;29.77;100156.02;105415;1303;72002;-80
2024/02/08 07:39:36;;;;;;;14.00;6.40;;;;;;;22.25;30.28;100168.30;104422;1292;61303;-81
2024/02/08 07:42:12;;;;;;;17.40;6.90;;;;;;;22.24;30.41;100167.96;104763;1292;61280;-82
2024/02/08 07:44:39;;;;;;;11.50;6.70;;;;;;;22.24;30.42;100172.89;105262;1292;74436;-81
2024/02/08 07:47:05;;;;;;;12.40;6.80;;;;;;;22.22;30.53;100171.94;105336;1292;61337;-83
2024/02/08 07:49:43;;;;;;;12.10;7.00;;;;;;;22.21;30.46;100170.21;104988;1294;61292;-80
2024/02/08 07:52:19;;;;;;;13.40;7.10;;;;;;;22.20;30.49;100169.27;105239;1294;72197;-80
2024/02/08 07:55:14;;;;;;;20.30;7.80;;;;;;;22.19;30.48;100165.75;105071;1292;74254;-81
2024/02/08 07:57:48;;;;;;;14.40;6.50;;;;;;;22.16;30.69;100162.58;104560;1294;63540;-80
2024/02/08 08:00:32;;;;;;;15.00;7.00;;;;;;;22.16;31.04;100166.59;104953;1291;61286;-81
2024/02/08 08:03:07;;;;;;;23.10;6.60;;;;;;;22.17;31.19;100162.16;105231;1296;72530;-79
2024/02/08 08:05:41;;;;;;;15.20;7.00;;;;;;;22.18;31.27;100160.14;104335;1296;700204;-79
2024/02/08 08:08:28;;;;;;;16.60;7.00;;;;;;;22.19;31.33;100156.65;104622;1294;61208;-79
2024/02/08 08:11:15;;;;;;;14.50;6.40;;;;;;;22.21;31.28;100161.27;104385;1296;60648;-79
2024/02/08 08:14:06;;;;;;;13.40;6.20;;;;;;;22.23;31.30;100160.94;104953;1295;72537;-79
2024/02/08 08:16:36;;;;;;;18.50;6.90;;;;;;;22.24;31.20;100159.90;104283;1296;74319;-80
2024/02/08 08:19:09;;;;;;;16.80;7.10;;;;;;;22.27;31.21;100159.89;104600;1296;61338;-82
2024/02/08 08:22:03;;;;;;;15.20;7.10;;;;;;;22.29;31.21;100164.73;104584;1296;61234;-80
2024/02/08 08:24:27;;;;;;;11.40;6.50;;;;;;;22.30;31.18;100164.88;105662;1296;72565;-82
2024/02/08 08:27:25;;;;;;;11.80;6.50;;;;;;;22.33;31.09;100164.95;104221;1296;75316;-80
2024/02/08 08:29:58;;;;;;;16.90;6.10;;;;;;;22.36;31.20;100165.55;103549;1296;61329;-80
2024/02/08 08:41:06;;;;;;;11.80;6.50;;;;;;;22.51;31.29;100163.22;102970;1311;61362;-80
2024/02/08 08:43:35;;;;;;;17.50;7.10;;;;;;;22.54;31.44;100161.09;102848;1307;61301;-80
2024/02/08 08:46:09;;;;;;;11.90;6.30;;;;;;;22.57;31.53;100159.79;102527;1307;72556;-80
2024/02/08 08:48:35;;;;;;;14.40;6.80;;;;;;;22.60;31.39;100160.08;102719;1307;74707;-80
2024/02/08 08:51:13;;;;;;;12.30;6.40;;;;;;;22.61;31.40;100161.21;102571;1308;61405;-79
2024/02/08 08:53:56;;;;;;;18.40;7.00;;;;;;;22.64;31.46;100161.56;102972;1306;60119;-80
2024/02/08 08:56:28;;;;;;;20.40;7.90;;;;;;;22.64;31.46;100164.97;103454;1309;71235;-81
2024/02/08 08:58:58;;;;;;;17.70;7.20;;;;;;;22.63;31.97;100167.17;103552;1309;73411;-80
2024/02/08 09:01:24;;;;;;;26.70;7.90;;;;;;;22.64;32.18;100165.29;103452;1308;61379;-81
2024/02/08 09:04:09;;;;;;;21.50;7.00;;;;;;;22.66;32.72;100165.19;103640;1306;61666;-80
2024/02/08 09:06:41;;;;;;;36.10;8.10;;;;;;;22.68;32.89;100165.63;103687;1308;72595;-80
2024/02/08 09:12:06;;;;;;;14.60;6.90;;;;;;;22.75;33.63;100159.69;103114;1300;61257;-80
2024/02/08 09:14:32;;;;;;;20.10;8.00;;;;;;;22.75;33.24;100158.55;103660;1299;61540;-79
2024/02/08 09:17:02;;;;;;;15.60;7.40;;;;;;;22.77;33.11;100157.01;103860;1296;61316;-80
2024/02/08 09:19:29;;;;;;;17.60;6.70;;;;;;;22.78;33.00;100159.92;104480;1299;74413;-80
2024/02/08 09:22:02;;;;;;;16.00;7.40;;;;;;;22.79;32.84;100162.54;104123;1296;61322;-81
2024/02/08 09:24:28;;;;;;;19.60;6.70;;;;;;;22.81;32.62;100168.48;104420;1296;62819;-80
2024/02/08 09:29:39;;;;;;;11.00;5.90;;;;;;;22.83;32.61;100158.95;104119;1300;74120;-81
2024/02/08 09:34:53;;;;;;;13.80;6.70;;;;;;;22.87;32.55;100157.95;104044;1296;61361;-80
2024/02/08 09:37:25;;;;;;;20.30;6.40;;;;;;;22.89;32.63;100155.56;104157;1296;72505;-79
2024/02/08 09:42:17;;;;;;;14.60;6.50;;;;;;;22.91;32.56;100170.23;104728;1296;59951;-81
2024/02/08 09:44:49;;;;;;;13.90;6.10;;;;;;;22.93;32.57;100161.10;104549;1296;59473;-80
2024/02/08 09:47:25;;;;;;;15.00;7.00;;;;;;;22.95;32.44;100157.23;104534;1296;72436;-82
2024/02/08 09:50:00;;;;;;;15.50;6.40;;;;;;;22.95;32.52;100155.19;104682;1296;74590;-81
2024/02/08 09:52:40;;;;;;;21.30;7.00;;;;;;;22.94;32.49;100149.95;104381;1296;60168;-81
2024/02/08 09:55:08;;;;;;;27.90;6.90;;;;;;;22.96;33.36;100149.02;104247;1296;61296;-80
2024/02/08 09:57:45;;;;;;;32.40;8.20;;;;;;;22.99;33.94;100143.18;104254;1296;72455;-80
2024/02/08 10:00:35;;;;;;;25.20;7.70;;;;;;;22.98;34.10;100141.48;105521;1296;75614;-79
2024/02/08 10:03:07;;;;;;;22.00;8.10;;;;;;;22.99;34.31;100137.44;105558;1296;59941;-81
2024/02/08 10:05:50;;;;;;;24.30;7.50;;;;;;;23.00;33.91;100139.02;105630;1296;61282;-81
2024/02/08 10:08:28;;;;;;;17.60;7.50;;;;;;;22.95;33.48;100140.28;105631;1296;72577;-82
2024/02/08 10:11:45;;;;;;;13.20;6.80;;;;;;;22.90;33.09;100141.80;105378;1296;74237;-82
2024/02/08 10:16:47;;;;;;;12.70;6.80;;;;;;;22.85;32.52;100133.46;105450;1292;59167;-82
2024/02/08 10:22:00;;;;;;;18.00;7.50;;;;;;;22.76;31.90;100130.32;104696;1293;74320;-81
2024/02/08 10:26:19;;;;;;;20.50;6.70;;;;;;;22.70;31.92;100126.23;104431;1292;60450;-83
2024/02/08 10:27:35;;;;;;;13.20;5.70;;;;;;;22.72;32.54;100115.77;104784;1293;61272;-82
2024/02/08 10:30:06;;;;;;;12.70;6.60;;;;;;;22.78;32.80;100108.26;104603;1291;72591;-84
2024/02/08 10:32:37;;;;;;;16.30;6.40;;;;;;;22.86;32.93;100102.02;104746;1293;74359;-84
2024/02/08 10:35:20;;;;;;;18.40;6.80;;;;;;;22.92;33.14;100096.59;104662;1291;61261;-83
2024/02/08 10:38:09;;;;;;;18.90;6.60;;;;;;;22.95;33.02;100098.16;104780;1293;61384;-83
2024/02/08 10:40:35;;;;;;;18.40;6.10;;;;;;;22.93;32.82;100094.25;104403;1294;72414;-82
2024/02/08 10:43:16;;;;;;;15.20;6.50;;;;;;;22.90;32.58;100093.56;104575;1291;61277;-83
2024/02/08 10:45:53;;;;;;;17.90;6.50;;;;;;;22.88;32.39;100089.95;104553;1291;61406;-84
2024/02/08 10:48:22;;;;;;;22.00;6.00;;;;;;;22.86;32.08;100087.31;104356;1292;61180;-84
2024/02/08 10:50:49;;;;;;;13.00;6.00;;;;;;;22.82;31.94;100079.40;104434;1292;72361;-83
2024/02/08 10:53:39;;;;;;;16.50;5.90;;;;;;;22.82;32.05;100074.42;104182;1293;74237;-83
2024/02/08 10:56:14;;;;;;;14.50;6.50;;;;;;;22.84;32.17;100075.28;104129;1293;61426;-82
2024/02/08 10:59:09;;;;;;;15.70;6.10;;;;;;;22.86;32.03;100070.29;104203;1293;61350;-83
2024/02/08 11:04:30;;;;;;;15.80;6.10;;;;;;;22.86;32.46;100059.30;104622;1294;74637;-88
2024/02/08 11:07:06;;;;;;;19.40;6.50;;;;;;;22.87;32.55;100060.83;104177;1294;61891;-84
2024/02/08 11:09:34;;;;;;;21.20;6.30;;;;;;;22.85;32.65;100061.17;104556;1294;59980;-84
2024/02/08 11:12:14;;;;;;;21.90;6.00;;;;;;;22.88;32.89;100057.83;104782;1294;72502;-82
2024/02/08 11:14:56;;;;;;;19.40;6.30;;;;;;;22.93;32.82;100057.45;104656;1293;74659;-83
2024/02/08 11:17:35;;;;;;;11.70;5.30;;;;;;;22.97;32.96;100054.23;104586;1294;61208;-84
2024/02/08 11:20:03;;;;;;;20.30;5.90;;;;;;;23.00;33.13;100051.44;104616;1293;61969;-84
2024/02/08 11:22:39;;;;;;;14.50;5.90;;;;;;;23.02;33.17;100051.38;104488;1293;72661;-83
2024/02/08 11:25:36;;;;;;;12.70;5.70;;;;;;;23.00;33.01;100049.14;104679;1296;74500;-83
2024/02/08 11:28:24;;;;;;;19.30;6.10;;;;;;;22.98;32.76;100042.80;104812;1294;59919;-83
2024/02/08 11:30:51;;;;;;;16.70;5.70;;;;;;;22.96;32.50;100044.24;104461;1293;60157;-84
2024/02/08 11:33:22;;;;;;;13.50;5.90;;;;;;;22.93;32.35;100040.92;104614;1293;72536;-84
2024/02/08 11:35:57;;;;;;;16.80;6.10;;;;;;;22.91;32.27;100038.39;104191;1294;74472;-83
2024/02/08 11:38:30;;;;;;;12.60;5.80;;;;;;;22.86;32.17;100037.21;104153;1299;62950;-83
2024/02/08 11:41:07;;;;;;;18.10;6.50;;;;;;;22.86;32.09;100036.13;104303;1294;61650;-83
2024/02/08 11:43:33;;;;;;;13.10;5.70;;;;;;;22.85;31.85;100029.97;104206;1294;72715;-84
2024/02/08 11:45:59;;;;;;;13.10;5.80;;;;;;;22.80;31.70;100028.45;104506;1294;58879;-84
2024/02/08 11:48:31;;;;;;;14.10;5.80;;;;;;;22.80;31.82;100025.98;104669;1293;61335;-83
2024/02/08 11:51:09;;;;;;;15.20;5.90;;;;;;;22.81;31.57;100032.52;104591;1296;61399;-84
2024/02/08 11:53:35;;;;;;;15.50;6.00;;;;;;;22.83;31.58;100028.42;104634;1294;72840;-83
2024/02/08 11:56:11;;;;;;;14.50;5.90;;;;;;;22.84;31.55;100023.80;104634;1293;61296;-84
2024/02/08 11:58:46;;;;;;;18.80;6.30;;;;;;;22.85;31.52;100020.15;104412;1294;61381;-84
2024/02/08 12:01:17;;;;;;;20.60;5.80;;;;;;;22.84;31.61;100013.56;104874;1293;61401;-82
2024/02/08 12:03:44;;;;;;;22.90;5.80;;;;;;;22.85;31.78;100018.66;104826;1294;73629;-83
2024/02/08 12:06:21;;;;;;;18.30;5.30;;;;;;;22.90;32.31;100016.04;104863;1294;61984;-83
2024/02/08 12:09:02;;;;;;;21.30;6.20;;;;;;;22.98;32.88;100012.34;105102;1293;59799;-83
2024/02/08 12:11:32;;;;;;;23.20;5.50;;;;;;;23.03;33.24;100006.25;105061;1292;59642;-82
2024/02/08 12:14:01;;;;;;;26.80;5.40;;;;;;;23.06;33.22;100007.27;105060;1298;72994;-82
2024/02/08 12:16:27;;;;;;;19.10;5.60;;;;;;;23.03;33.20;100002.48;104779;1294;74552;-84
2024/02/08 12:18:55;;;;;;;15.90;5.10;;;;;;;23.02;33.15;99996.65;104741;1294;60451;-84
2024/02/08 12:21:23;;;;;;;26.30;6.00;;;;;;;23.04;33.20;99992.77;104499;1294;63182;-82
2024/02/08 12:23:53;;;;;;;15.10;5.80;;;;;;;23.05;33.02;99990.88;104522;1294;72754;-83
2024/02/08 12:26:22;;;;;;;15.00;5.60;;;;;;;23.03;32.92;99993.84;104590;1293;74446;-83
2024/02/08 12:28:50;;;;;;;18.30;5.80;;;;;;;23.05;33.20;99989.42;104530;1294;59912;-84
2024/02/08 12:31:18;;;;;;;15.40;5.20;;;;;;;23.06;32.90;99987.91;104647;1294;60499;-84
2024/02/08 12:33:45;;;;;;;21.80;5.80;;;;;;;23.07;32.86;99988.48;104848;1296;72470;-82
2024/02/08 12:36:12;;;;;;;23.30;5.50;;;;;;;23.11;33.21;99986.53;104826;1293;74336;-84
2024/02/08 12:38:38;;;;;;;14.50;5.60;;;;;;;23.19;33.81;99979.21;104513;1299;61119;-84
2024/02/08 12:41:06;;;;;;;19.20;5.20;;;;;;;23.24;34.03;99977.99;104628;1294;59616;-83
2024/02/08 12:43:33;;;;;;;20.80;5.60;;;;;;;23.28;34.12;99973.53;104526;1293;72454;-84
2024/02/08 12:45:59;;;;;;;15.40;5.90;;;;;;;23.29;34.26;99975.23;104347;1293;74902;-84
2024/02/08 12:48:29;;;;;;;23.90;6.00;;;;;;;23.25;33.93;99978.41;104422;1293;61428;-84
2024/02/08 12:50:57;;;;;;;26.80;6.30;;;;;;;23.22;34.10;99975.81;104621;1294;61170;-83
2024/02/08 12:53:23;;;;;;;22.40;5.40;;;;;;;23.21;33.96;99976.96;104692;1293;73812;-83
2024/02/08 12:55:48;;;;;;;18.10;5.00;;;;;;;23.19;33.48;99977.77;104274;1294;59565;-82
2024/02/08 12:58:17;;;;;;;24.50;5.50;;;;;;;23.13;32.73;99970.21;104213;1293;61926;-85
2024/02/08 13:03:38;;;;;;;13.20;4.70;;;;;;;22.97;31.48;99970.95;105314;1294;72514;-80
2024/02/08 13:06:09;;;;;;;14.30;5.60;;;;;;;22.93;31.27;99969.88;104478;1293;61313;-82
2024/02/08 13:08:35;;;;;;;17.30;6.90;;;;;;;22.88;30.96;99966.55;104808;1293;61364;-81
2024/02/08 13:11:01;;;;;;;16.10;6.80;;;;;;;22.83;30.65;99967.58;104952;1293;59884;-81
2024/02/08 13:13:28;;;;;;;12.50;6.30;;;;;;;22.79;30.35;99967.58;104405;1294;61402;-80
2024/02/08 13:15:58;;;;;;;12.50;5.80;;;;;;;22.76;30.28;99967.66;104774;1294;63483;-80
2024/02/08 13:18:29;;;;;;;10.80;5.90;;;;;;;22.73;30.14;99963.61;104575;1292;61198;-81
2024/02/08 13:20:57;;;;;;;18.20;6.60;;;;;;;22.73;30.14;99962.58;104511;1293;60467;-80
2024/02/08 13:23:23;;;;;;;16.40;6.90;;;;;;;22.72;30.16;99960.66;104196;1294;72327;-82
2024/02/08 13:25:54;;;;;;;23.10;9.20;;;;;;;22.70;30.02;99959.06;104151;1294;74404;-82
2024/02/08 13:28:26;;;;;;;17.30;8.90;;;;;;;22.68;30.08;99954.40;104554;1294;61323;-83
2024/02/08 13:30:57;;;;;;;26.20;14.90;;;;;;;22.67;29.97;99960.05;104183;1294;61399;-81
2024/02/08 13:33:23;;;;;;;29.10;16.80;;;;;;;22.65;30.04;99954.69;103961;1293;71512;-81
2024/02/08 13:35:52;;;;;;;24.20;13.80;;;;;;;22.63;30.05;99950.91;103707;1293;61332;-82
2024/02/08 13:38:22;;;;;;;;;;;;;;;22.64;30.61;99950.46;104370;1294;59876;-82
2024/02/08 13:40:53;;;;;;;43.40;17.10;;;;;;;22.63;30.67;99952.19;104656;1292;61171;-82
2024/02/08 13:43:19;;;;;;;45.40;20.10;;;;;;;22.65;30.99;99952.67;104627;1294;71155;-81
2024/02/08 13:45:44;;;;;;;32.20;18.90;;;;;;;22.67;30.91;99951.83;104525;1292;60019;-83